Time;durP1;ratioP1;P1;durP2;ratioP2;P2;SDS_P1;SDS_P2;PMS_P1;PMS_P2;Temp;Humidity;BMP_temperature;BMP_pressure;BME280_temperature;BME280_humidity;BME280_pressure;Samples;Min_cycle;Max_cycle;Signal;HPM_P1;HPM_P2
2023/04/17 00:00:12;;;;;;;;;;;23.80;39.00;;;;;;5135313;27;20339;-65
2023/04/17 00:02:39;;;;;;;;;;;23.90;38.90;;;;;;5134727;27;19923;-65
2023/04/17 00:05:07;;;;;;;;;;;23.90;38.80;;;;;;5154073;27;20344;-66
2023/04/17 00:07:33;;;;;;;;;;;24.00;38.70;;;;;;5153923;27;19923;-66
2023/04/17 00:09:58;;;;;;;;;;;24.00;38.60;;;;;;5135614;27;19923;-66
2023/04/17 00:12:24;;;;;;;;;;;24.00;38.60;;;;;;5153961;27;19919;-66
2023/04/17 00:14:49;;;;;;;;;;;24.10;38.50;;;;;;5135406;27;20366;-65
2023/04/17 00:17:15;;;;;;;;;;;24.10;38.40;;;;;;5153685;27;19942;-66
2023/04/17 00:19:40;;;;;;;;;;;24.20;38.30;;;;;;5135354;27;19926;-66
2023/04/17 00:22:06;;;;;;;;;;;24.20;38.30;;;;;;5135179;27;20390;-70
2023/04/17 00:24:31;;;;;;;;;;;24.20;38.30;;;;;;5154130;27;19925;-65
2023/04/17 00:26:57;;;;;;;;;;;24.30;38.20;;;;;;5135390;27;20374;-69
2023/04/17 00:29:22;;;;;;;;;;;24.30;38.10;;;;;;5135243;27;19967;-66
2023/04/17 00:31:48;;;;;;;;;;;24.40;38.00;;;;;;5135342;27;19995;-65
2023/04/17 00:34:13;;;;;;;;;;;24.40;38.00;;;;;;5135438;27;19923;-66
2023/04/17 00:36:39;;;;;;;;;;;24.50;38.00;;;;;;5154093;27;20029;-66
2023/04/17 00:39:04;;;;;;;;;;;24.40;37.90;;;;;;5135450;27;19919;-66
2023/04/17 00:41:30;;;;;;;;;;;24.50;37.80;;;;;;5153587;27;19923;-65
2023/04/17 00:43:55;;;;;;;;;;;24.50;37.80;;;;;;5135479;27;19949;-66
2023/04/17 00:46:21;;;;;;;;;;;24.40;37.80;;;;;;5134986;27;20301;-66
2023/04/17 00:48:47;;;;;;;;;;;24.30;37.90;;;;;;5135229;27;19926;-66
2023/04/17 00:51:12;;;;;;;;;;;24.20;38.20;;;;;;5134940;27;19954;-66
2023/04/17 00:53:38;;;;;;;;;;;24.10;38.40;;;;;;5134917;27;19970;-66
2023/04/17 00:56:04;;;;;;;;;;;23.90;38.60;;;;;;5134978;27;19923;-65
2023/04/17 00:58:30;;;;;;;;;;;23.80;38.80;;;;;;5135439;27;19972;-66
2023/04/17 01:00:56;;;;;;;;;;;23.80;38.80;;;;;;5134707;27;19927;-65
2023/04/17 01:03:21;;;;;;;;;;;23.80;38.70;;;;;;5153235;27;20010;-65
2023/04/17 01:05:48;;;;;;;;;;;24.00;38.70;;;;;;5135201;27;19973;-65
2023/04/17 01:08:14;;;;;;;;;;;24.10;38.40;;;;;;5154802;27;19923;-66
2023/04/17 01:10:39;;;;;;;;;;;24.20;38.20;;;;;;5138684;27;19930;-66
2023/04/17 01:13:06;;;;;;;;;;;24.30;37.90;;;;;;5138491;27;19926;-70
2023/04/17 01:15:32;;;;;;;;;;;24.50;37.90;;;;;;5138833;27;19919;-66
2023/04/17 01:17:58;;;;;;;;;;;24.50;37.70;;;;;;5138300;27;19964;-66
2023/04/17 01:20:24;;;;;;;;;;;24.60;37.60;;;;;;5157139;27;20025;-66
2023/04/17 01:22:50;;;;;;;;;;;24.70;37.40;;;;;;5138684;27;19924;-66
2023/04/17 01:25:17;;;;;;;;;;;24.70;37.30;;;;;;5138293;27;20412;-66
2023/04/17 01:27:42;;;;;;;;;;;24.80;37.30;;;;;;5138208;27;19931;-66
2023/04/17 01:30:08;;;;;;;;;;;24.90;37.10;;;;;;5138209;27;19944;-66
2023/04/17 01:32:34;;;;;;;;;;;24.90;37.10;;;;;;5138235;27;20018;-66
2023/04/17 01:34:59;;;;;;;;;;;25.00;37.00;;;;;;5138047;27;19919;-70
2023/04/17 01:37:25;;;;;;;;;;;25.00;37.00;;;;;;5138290;27;19930;-66
2023/04/17 01:39:50;;;;;;;;;;;25.00;36.90;;;;;;5137898;27;19926;-66
2023/04/17 01:42:16;;;;;;;;;;;25.00;36.90;;;;;;5138274;27;19919;-66
2023/04/17 01:44:41;;;;;;;;;;;25.00;36.90;;;;;;5137886;27;19919;-66
2023/04/17 01:47:07;;;;;;;;;;;25.00;36.90;;;;;;5156426;27;19978;-66
2023/04/17 01:49:32;;;;;;;;;;;25.00;36.90;;;;;;5156180;27;20358;-65
2023/04/17 01:51:58;;;;;;;;;;;25.00;36.80;;;;;;5137788;27;19919;-66
2023/04/17 01:54:23;;;;;;;;;;;25.10;36.90;;;;;;5137690;27;19930;-66
2023/04/17 01:56:49;;;;;;;;;;;25.20;37.00;;;;;;5137706;27;19999;-65
2023/04/17 01:59:15;;;;;;;;;;;25.10;36.90;;;;;;5156358;27;19941;-66
2023/04/17 02:01:40;;;;;;;;;;;25.10;36.90;;;;;;5137209;27;19929;-66
2023/04/17 02:04:06;;;;;;;;;;;25.10;36.80;;;;;;5155961;27;19932;-66
2023/04/17 02:06:31;;;;;;;;;;;25.10;36.70;;;;;;5156250;27;19974;-66
2023/04/17 02:08:58;;;;;;;;;;;25.20;36.70;;;;;;5120571;27;20044;-66
2023/04/17 02:11:24;;;;;;;;;;;25.30;36.70;;;;;;5137657;27;20013;-66
2023/04/17 02:13:49;;;;;;;;;;;25.40;36.60;;;;;;5137267;27;20473;-66
2023/04/17 02:16:15;;;;;;;;;;;25.40;36.40;;;;;;5155819;27;19980;-66
2023/04/17 02:18:40;;;;;;;;;;;25.50;36.30;;;;;;5137157;27;19973;-66
2023/04/17 02:21:06;;;;;;;;;;;25.60;36.20;;;;;;5137094;27;19929;-66
2023/04/17 02:23:31;;;;;;;;;;;25.60;36.10;;;;;;5155867;27;19919;-66
2023/04/17 02:25:57;;;;;;;;;;;25.80;36.00;;;;;;5155712;27;19919;-66
2023/04/17 02:28:22;;;;;;;;;;;25.90;35.90;;;;;;5137024;27;19954;-66
2023/04/17 02:30:48;;;;;;;;;;;25.90;35.70;;;;;;5137223;27;19967;-66
2023/04/17 02:33:13;;;;;;;;;;;26.00;35.60;;;;;;5155796;27;19923;-66
2023/04/17 02:35:39;;;;;;;;;;;26.20;35.60;;;;;;5155573;27;20366;-66
2023/04/17 02:38:05;;;;;;;;;;;26.20;35.60;;;;;;5155336;27;19923;-66
2023/04/17 02:40:30;;;;;;;;;;;26.10;35.40;;;;;;5136886;27;20010;-66
2023/04/17 02:42:56;;;;;;;;;;;26.20;35.40;;;;;;5155686;27;19919;-66
2023/04/17 02:45:21;;;;;;;;;;;26.20;36.20;;;;;;5137052;27;20374;-66
2023/04/17 02:47:47;;;;;;;;;;;26.20;35.40;;;;;;5155419;27;19926;-66
2023/04/17 02:50:12;;;;;;;;;;;26.20;35.50;;;;;;5155136;27;20294;-66
2023/04/17 02:52:38;;;;;;;;;;;26.20;35.40;;;;;;5155107;27;20289;-66
2023/04/17 02:55:05;;;;;;;;;;;26.20;35.50;;;;;;5136654;27;20032;-66
2023/04/17 02:57:31;;;;;;;;;;;26.20;35.40;;;;;;5136583;27;20366;-66
2023/04/17 02:59:57;;;;;;;;;;;26.10;35.50;;;;;;5154768;27;19919;-66
2023/04/17 03:02:23;;;;;;;;;;;26.10;35.70;;;;;;5136352;27;19923;-66
2023/04/17 03:04:49;;;;;;;;;;;26.00;35.70;;;;;;5155177;27;19919;-66
2023/04/17 03:07:17;;;;;;;;;;;26.00;35.80;;;;;;5154893;27;19926;-66
2023/04/17 03:09:45;;;;;;;;;;;25.90;35.80;;;;;;5136570;27;19969;-66
2023/04/17 03:12:11;;;;;;;;;;;25.90;35.80;;;;;;5136150;27;19919;-66
2023/04/17 03:14:37;;;;;;;;;;;25.90;35.90;;;;;;5136132;27;19923;-66
2023/04/17 03:17:02;;;;;;;;;;;25.90;35.90;;;;;;5136043;27;19919;-66
2023/04/17 03:19:28;;;;;;;;;;;25.80;35.80;;;;;;5154714;27;19919;-66
2023/04/17 03:21:53;;;;;;;;;;;25.80;35.90;;;;;;5135887;27;20377;-66
2023/04/17 03:24:19;;;;;;;;;;;25.80;35.90;;;;;;5136540;27;20010;-66
2023/04/17 03:26:44;;;;;;;;;;;25.90;36.00;;;;;;5135819;27;19971;-66
2023/04/17 03:29:10;;;;;;;;;;;25.80;36.00;;;;;;5136320;27;19919;-66
2023/04/17 03:31:35;;;;;;;;;;;25.80;36.00;;;;;;5135403;27;19926;-66
2023/04/17 03:34:04;;;;;;;;;;;25.80;36.00;;;;;;5136201;27;19962;-66
2023/04/17 03:36:30;;;;;;;;;;;25.80;36.10;;;;;;5136108;27;20267;-66
2023/04/17 03:38:56;;;;;;;;;;;25.80;36.00;;;;;;5135658;27;19926;-66
2023/04/17 03:41:22;;;;;;;;;;;25.80;36.00;;;;;;5135825;27;19919;-66
2023/04/17 03:43:47;;;;;;;;;;;25.80;36.20;;;;;;5135919;27;20479;-65
2023/04/17 03:46:13;;;;;;;;;;;25.80;36.00;;;;;;5154262;27;19923;-66
2023/04/17 03:48:38;;;;;;;;;;;25.80;36.10;;;;;;5154087;27;20382;-66
2023/04/17 03:51:04;;;;;;;;;;;25.70;36.00;;;;;;5135546;27;20404;-66
2023/04/17 03:53:29;;;;;;;;;;;25.80;36.10;;;;;;5135768;27;19919;-66
2023/04/17 03:55:55;;;;;;;;;;;25.70;36.10;;;;;;5135527;27;20456;-66
2023/04/17 03:58:21;;;;;;;;;;;25.70;36.00;;;;;;5135458;27;19926;-66
2023/04/17 04:00:47;;;;;;;;;;;25.70;36.00;;;;;;5134656;27;19930;-66
2023/04/17 04:03:13;;;;;;;;;;;25.70;36.10;;;;;;5135322;27;20392;-66
2023/04/17 04:05:38;;;;;;;;;;;25.70;36.10;;;;;;5135839;27;19919;-66
2023/04/17 04:08:04;;;;;;;;;;;25.70;36.20;;;;;;5135227;27;19919;-66
2023/04/17 04:10:31;;;;;;;;;;;25.60;36.10;;;;;;5154273;27;19991;-66
2023/04/17 04:12:56;;;;;;;;;;;25.70;36.20;;;;;;5135576;27;19919;-66
2023/04/17 04:15:22;;;;;;;;;;;25.70;36.20;;;;;;5135614;27;19926;-66
2023/04/17 04:17:47;;;;;;;;;;;25.60;36.20;;;;;;5135338;27;19919;-66
2023/04/17 04:20:13;;;;;;;;;;;25.60;36.20;;;;;;5153734;27;19927;-66
2023/04/17 04:22:40;;;;;;;;;;;25.50;36.20;;;;;;5135716;27;19980;-66
2023/04/17 04:25:06;;;;;;;;;;;25.50;36.40;;;;;;5134362;27;19919;-66
2023/04/17 04:27:31;;;;;;;;;;;25.50;36.40;;;;;;5153704;27;20006;-66
2023/04/17 04:29:58;;;;;;;;;;;25.50;36.50;;;;;;5153728;27;20370;-66
2023/04/17 04:32:24;;;;;;;;;;;25.50;36.40;;;;;;5135494;27;19934;-66
2023/04/17 04:34:50;;;;;;;;;;;25.50;36.50;;;;;;5135099;27;19919;-66
2023/04/17 04:37:16;;;;;;;;;;;25.50;36.50;;;;;;5135038;27;19920;-66
2023/04/17 04:39:42;;;;;;;;;;;25.40;36.50;;;;;;5135273;27;20331;-66
2023/04/17 04:42:08;;;;;;;;;;;25.40;36.50;;;;;;5135011;27;20013;-66
2023/04/17 04:44:34;;;;;;;;;;;25.40;36.50;;;;;;5138834;27;19923;-66
2023/04/17 04:47:00;;;;;;;;;;;25.50;36.60;;;;;;5139404;27;20255;-66
2023/04/17 04:49:26;;;;;;;;;;;25.50;36.50;;;;;;5156880;27;20025;-66
2023/04/17 04:51:51;;;;;;;;;;;25.50;36.50;;;;;;5139282;27;19926;-66
2023/04/17 04:54:17;;;;;;;;;;;25.40;36.40;;;;;;5139064;27;20009;-66
2023/04/17 04:56:43;;;;;;;;;;;25.50;36.50;;;;;;5139170;27;20373;-66
2023/04/17 04:59:09;;;;;;;;;;;25.50;36.50;;;;;;5139209;27;19919;-66
2023/04/17 05:01:35;;;;;;;;;;;25.40;36.40;;;;;;5138377;27;19923;-66
2023/04/17 05:04:01;;;;;;;;;;;25.40;36.50;;;;;;5138728;27;19919;-66
2023/04/17 05:06:26;;;;;;;;;;;25.50;36.50;;;;;;5138633;27;19923;-66
2023/04/17 05:08:52;;;;;;;;;;;25.40;36.40;;;;;;5138956;27;19927;-66
2023/04/17 05:11:17;;;;;;;;;;;25.50;36.50;;;;;;5138469;27;19970;-66
2023/04/17 05:13:43;;;;;;;;;;;25.50;36.50;;;;;;5156701;27;19930;-66
2023/04/17 05:16:08;;;;;;;;;;;25.50;36.60;;;;;;5157312;27;20335;-66
2023/04/17 05:18:34;;;;;;;;;;;25.40;36.50;;;;;;5138688;27;20332;-67
2023/04/17 05:21:00;;;;;;;;;;;25.50;36.50;;;;;;5138446;27;19930;-66
2023/04/17 05:23:27;;;;;;;;;;;25.40;36.50;;;;;;5138339;27;19969;-66
2023/04/17 05:25:52;;;;;;;;;;;25.40;36.50;;;;;;5138492;27;19919;-66
2023/04/17 05:28:18;;;;;;;;;;;25.50;36.60;;;;;;5144700;27;20449;-66
2023/04/17 05:30:43;;;;;;;;;;;25.40;36.40;;;;;;5149422;27;19923;-65
2023/04/17 05:33:09;;;;;;;;;;;25.30;36.30;;;;;;5150193;27;20281;-67
2023/04/17 05:35:35;;;;;;;;;;;25.00;36.30;;;;;;5167977;27;19950;-67
2023/04/17 05:38:00;;;;;;;;;;;24.70;36.40;;;;;;5157413;27;19930;-66
2023/04/17 05:40:26;;;;;;;;;;;24.40;37.00;;;;;;5165127;27;19923;-66
2023/04/17 05:42:51;;;;;;;;;;;24.00;38.20;;;;;;5157892;27;19923;-66
2023/04/17 05:45:17;;;;;;;;;;;23.70;38.00;;;;;;5170105;27;19926;-67
2023/04/17 05:47:42;;;;;;;;;;;23.40;38.60;;;;;;5156916;27;20010;-66
2023/04/17 05:50:08;;;;;;;;;;;23.10;39.20;;;;;;5161763;27;19919;-66
2023/04/17 05:52:34;;;;;;;;;;;22.80;39.70;;;;;;5134055;27;20010;-66
2023/04/17 05:55:00;;;;;;;;;;;22.50;40.20;;;;;;5140163;27;19944;-68
2023/04/17 05:57:25;;;;;;;;;;;22.30;40.70;;;;;;5150312;27;19925;-71
2023/04/17 05:59:50;;;;;;;;;;;22.10;41.10;;;;;;5149929;27;20130;-68
2023/04/17 06:02:16;;;;;;;;;;;21.90;41.40;;;;;;5137156;27;19938;-68
2023/04/17 06:04:42;;;;;;;;;;;21.70;41.70;;;;;;5158333;27;19923;-70
2023/04/17 06:07:09;;;;;;;;;;;21.60;42.20;;;;;;5142408;27;20013;-67
2023/04/17 06:09:35;;;;;;;;;;;21.40;42.40;;;;;;5156844;27;19927;-66
2023/04/17 06:12:02;;;;;;;;;;;21.30;42.80;;;;;;5164308;27;19922;-66
2023/04/17 06:14:27;;;;;;;;;;;21.20;43.00;;;;;;5140659;27;20002;-66
2023/04/17 06:16:53;;;;;;;;;;;21.20;43.20;;;;;;5141700;27;20327;-67
2023/04/17 06:19:18;;;;;;;;;;;21.10;43.10;;;;;;5142279;27;19927;-66
2023/04/17 06:21:44;;;;;;;;;;;21.00;43.30;;;;;;5139374;27;19933;-66
2023/04/17 06:24:09;;;;;;;;;;;20.90;43.50;;;;;;5141756;27;19926;-66
2023/04/17 06:26:35;;;;;;;;;;;20.80;43.70;;;;;;5135046;27;19926;-66
2023/04/17 06:29:01;;;;;;;;;;;20.70;43.90;;;;;;5139515;27;20048;-66
2023/04/17 06:31:26;;;;;;;;;;;20.70;44.20;;;;;;5131573;27;19919;-66
2023/04/17 06:33:51;;;;;;;;;;;20.60;44.30;;;;;;5142686;27;19934;-70
2023/04/17 06:36:17;;;;;;;;;;;20.50;44.50;;;;;;5134403;27;19923;-67
2023/04/17 06:38:43;;;;;;;;;;;20.40;44.70;;;;;;5129239;27;20480;-67
2023/04/17 06:41:08;;;;;;;;;;;20.40;45.00;;;;;;5126621;27;19927;-70
2023/04/17 06:43:34;;;;;;;;;;;20.30;45.10;;;;;;5136863;27;19966;-70
2023/04/17 06:45:59;;;;;;;;;;;20.30;45.30;;;;;;5153727;27;20010;-69
2023/04/17 06:48:25;;;;;;;;;;;20.30;45.50;;;;;;5140596;27;19929;-68
2023/04/17 06:50:51;;;;;;;;;;;20.30;46.60;;;;;;5153688;27;20508;-67
2023/04/17 06:53:16;;;;;;;;;;;20.30;46.00;;;;;;5141732;27;19919;-65
2023/04/17 06:55:42;;;;;;;;;;;20.20;46.20;;;;;;5134959;27;19923;-64
2023/04/17 06:58:07;;;;;;;;;;;20.20;46.50;;;;;;5139587;27;19927;-64
2023/04/17 07:00:33;;;;;;;;;;;20.20;46.60;;;;;;5152736;27;19955;-64
2023/04/17 07:02:59;;;;;;;;;;;20.10;46.70;;;;;;5133664;27;19954;-64
2023/04/17 07:05:24;;;;;;;;;;;20.10;47.00;;;;;;5147109;27;19927;-67
2023/04/17 07:07:50;;;;;;;;;;;20.10;47.20;;;;;;5150717;27;20505;-65
2023/04/17 07:10:18;;;;;;;;;;;20.10;47.40;;;;;;5134980;27;19967;-65
2023/04/17 07:12:44;;;;;;;;;;;20.10;47.50;;;;;;5151978;27;20205;-66
2023/04/17 07:15:09;;;;;;;;;;;20.10;47.70;;;;;;5137153;27;20085;-65
2023/04/17 07:17:35;;;;;;;;;;;20.00;47.80;;;;;;5137726;27;19966;-65
2023/04/17 07:20:00;;;;;;;;;;;20.00;48.00;;;;;;5152166;27;20472;-65
2023/04/17 07:22:26;;;;;;;;;;;20.00;48.10;;;;;;5133635;27;19927;-66
2023/04/17 07:24:51;;;;;;;;;;;19.90;48.30;;;;;;5153211;27;19922;-66
2023/04/17 07:27:17;;;;;;;;;;;19.90;48.40;;;;;;5143071;27;19923;-66
2023/04/17 07:29:45;;;;;;;;;;;19.90;48.60;;;;;;5153536;27;19927;-66
2023/04/17 07:32:12;;;;;;;;;;;19.90;48.70;;;;;;5135903;27;19923;-66
2023/04/17 07:34:40;;;;;;;;;;;19.80;48.80;;;;;;5135303;27;19919;-66
2023/04/17 07:37:05;;;;;;;;;;;19.80;48.90;;;;;;5134909;27;20352;-66
2023/04/17 07:39:31;;;;;;;;;;;19.80;48.90;;;;;;5126423;27;20013;-67
2023/04/17 07:41:56;;;;;;;;;;;19.80;49.00;;;;;;5133537;27;19927;-68
2023/04/17 07:44:22;;;;;;;;;;;19.80;49.20;;;;;;5139048;27;19919;-65
2023/04/17 07:46:47;;;;;;;;;;;19.80;49.20;;;;;;5149556;27;20304;-66
2023/04/17 07:49:12;;;;;;;;;;;19.70;49.20;;;;;;5149594;27;20041;-67
2023/04/17 07:51:39;;;;;;;;;;;19.70;49.30;;;;;;5132454;27;19941;-66
2023/04/17 07:54:05;;;;;;;;;;;19.70;49.30;;;;;;5135813;27;19941;-67
2023/04/17 07:56:33;;;;;;;;;;;19.70;49.40;;;;;;5135061;27;19927;-67
2023/04/17 07:58:59;;;;;;;;;;;19.70;49.40;;;;;;5152331;27;19923;-66
2023/04/17 08:01:25;;;;;;;;;;;19.70;49.40;;;;;;5135071;27;19927;-67
2023/04/17 08:03:51;;;;;;;;;;;19.70;49.40;;;;;;5130648;27;19934;-67
2023/04/17 08:06:17;;;;;;;;;;;19.70;49.50;;;;;;5130335;27;19969;-69
2023/04/17 08:08:46;;;;;;;;;;;19.60;49.50;;;;;;5134764;27;20018;-64
2023/04/17 08:11:13;;;;;;;;;;;19.60;49.70;;;;;;5147068;27;20401;-64
2023/04/17 08:13:39;;;;;;;;;;;19.60;49.90;;;;;;5134364;27;19975;-64
2023/04/17 08:16:04;;;;;;;;;;;19.60;50.00;;;;;;5129056;27;19926;-63
2023/04/17 08:18:31;;;;;;;;;;;19.60;50.10;;;;;;5129991;27;20484;-64
2023/04/17 08:20:56;;;;;;;;;;;19.60;50.10;;;;;;5133538;27;19927;-63
2023/04/17 08:23:22;;;;;;;;;;;19.60;50.10;;;;;;5151589;27;19946;-64
2023/04/17 08:25:47;;;;;;;;;;;19.60;50.10;;;;;;5153717;27;20428;-64
2023/04/17 08:28:13;;;;;;;;;;;19.60;50.10;;;;;;5135216;27;19975;-66
2023/04/17 08:30:38;;;;;;;;;;;19.60;50.10;;;;;;5135436;27;20399;-65
2023/04/17 08:33:04;;;;;;;;;;;19.50;49.90;;;;;;5130200;27;20242;-68
2023/04/17 08:35:29;;;;;;;;;;;19.50;50.10;;;;;;5136874;27;20510;-69
2023/04/17 08:37:57;;;;;;;;;;;19.40;50.10;;;;;;5134898;27;19937;-68
2023/04/17 08:40:25;;;;;;;;;;;19.40;50.30;;;;;;5151279;27;20426;-66
2023/04/17 08:42:51;;;;;;;;;;;19.40;50.40;;;;;;5135038;27;19919;-67
2023/04/17 08:45:17;;;;;;;;;;;19.50;50.60;;;;;;5139673;27;19930;-63
2023/04/17 08:47:42;;;;;;;;;;;19.40;50.70;;;;;;5149572;27;19930;-64
2023/04/17 08:50:10;;;;;;;;;;;19.50;50.70;;;;;;5151551;27;20275;-64
2023/04/17 08:52:37;;;;;;;;;;;19.40;50.70;;;;;;5131837;27;19919;-66
2023/04/17 08:55:03;;;;;;;;;;;19.50;50.80;;;;;;5137033;27;19973;-68
2023/04/17 08:57:29;;;;;;;;;;;19.50;50.90;;;;;;5131685;27;19963;-67
2023/04/17 08:59:54;;;;;;;;;;;19.50;51.00;;;;;;5134175;27;19931;-67
2023/04/17 09:02:20;;;;;;;;;;;19.40;51.20;;;;;;5141556;27;20401;-67
2023/04/17 09:04:47;;;;;;;;;;;19.40;51.20;;;;;;5136298;27;19929;-67
2023/04/17 09:07:14;;;;;;;;;;;19.50;51.40;;;;;;5147957;27;19962;-66
2023/04/17 09:12:27;;;;;;;;;;;19.50;51.40;;;;;;5073288;27;19920;-67
2023/04/17 09:14:53;;;;;;;;;;;19.50;51.60;;;;;;5083716;28;19931;-66
2023/04/17 09:17:19;;;;;;;;;;;19.50;51.60;;;;;;5055983;28;20469;-65
2023/04/17 09:20:03;;;;;;;;;;;19.50;51.70;;;;;;5054885;28;19935;-67
2023/04/17 09:22:28;;;;;;;;;;;19.50;51.60;;;;;;5056823;28;19935;-66
2023/04/17 09:24:54;;;;;;;;;;;19.40;51.70;;;;;;5047236;28;19925;-67
2023/04/17 09:27:24;;;;;;;;;;;19.40;51.80;;;;;;5051528;28;19933;-65
2023/04/17 09:29:57;;;;;;;;;;;19.50;51.90;;;;;;5050091;28;19938;-66
2023/04/17 09:32:24;;;;;;;;;;;19.40;52.00;;;;;;5047658;28;19970;-67
2023/04/17 09:34:50;;;;;;;;;;;19.40;52.00;;;;;;5084060;28;19929;-66
2023/04/17 09:37:15;;;;;;;;;;;19.40;52.00;;;;;;5050743;28;19931;-68
2023/04/17 09:39:57;;;;;;;;;;;19.40;52.00;;;;;;5053018;28;19929;-67
2023/04/17 09:42:23;;;;;;;;;;;19.40;52.00;;;;;;5050517;28;19951;-66
2023/04/17 09:44:48;;;;;;;;;;;19.40;52.10;;;;;;5052524;28;19924;-66
2023/04/17 09:47:15;;;;;;;;;;;19.40;52.20;;;;;;5050050;28;20421;-66
2023/04/17 09:49:43;;;;;;;;;;;19.40;52.20;;;;;;5047220;28;20402;-66
2023/04/17 09:52:09;;;;;;;;;;;19.40;52.30;;;;;;5079241;28;19933;-65
2023/04/17 09:54:36;;;;;;;;;;;19.40;52.40;;;;;;5048730;28;20352;-65
2023/04/17 09:57:03;;;;;;;;;;;19.40;52.40;;;;;;5052775;28;20040;-71
2023/04/17 09:59:29;;;;;;;;;;;19.40;52.50;;;;;;5037971;28;19994;-68
2023/04/17 10:01:55;;;;;;;;;;;19.40;52.80;;;;;;5076761;28;19925;-69
2023/04/17 10:04:21;;;;;;;;;;;19.40;52.90;;;;;;5052715;28;19924;-67
2023/04/17 10:06:48;;;;;;;;;;;19.40;52.90;;;;;;5055353;28;19920;-67
2023/04/17 10:09:13;;;;;;;;;;;19.50;52.90;;;;;;5049062;28;20092;-68
2023/04/17 10:11:41;;;;;;;;;;;19.50;52.80;;;;;;5067263;28;19936;-67
2023/04/17 10:16:49;;;;;;;;;;;19.50;53.00;;;;;;5067083;28;20466;-69
2023/04/17 10:19:30;;;;;;;;;;;19.50;52.90;;;;;;5105100;27;19974;-67
2023/04/17 10:22:17;;;;;;;;;;;19.50;52.90;;;;;;5072243;28;19924;-69
2023/04/17 10:24:44;;;;;;;;;;;19.50;53.00;;;;;;5069739;28;19951;-67
2023/04/17 10:32:45;;;;;;;;;;;19.40;52.50;;;;;;5067788;27;19957;-66
2023/04/17 10:38:01;;;;;;;;;;;19.40;53.00;;;;;;5083866;27;19935;-66
2023/04/17 10:40:30;;;;;;;;;;;19.40;53.00;;;;;;5081564;28;19932;-67
2023/04/17 10:43:16;;;;;;;;;;;19.40;52.90;;;;;;5085657;28;20386;-68
2023/04/17 10:48:40;;;;;;;;;;;19.40;53.00;;;;;;5057940;27;20284;-67
2023/04/17 10:54:01;;;;;;;;;;;19.40;52.90;;;;;;5086074;27;19997;-65
2023/04/17 10:56:29;;;;;;;;;;;19.50;53.00;;;;;;5062332;28;20062;-65
2023/04/17 10:58:56;;;;;;;;;;;19.50;52.90;;;;;;5077827;28;19979;-66
2023/04/17 11:01:23;;;;;;;;;;;19.50;52.90;;;;;;5063396;28;19944;-66
2023/04/17 11:03:48;;;;;;;;;;;19.50;52.90;;;;;;5057955;28;19987;-68
2023/04/17 11:06:14;;;;;;;;;;;19.50;52.90;;;;;;5060383;28;19967;-67
2023/04/17 11:08:40;;;;;;;;;;;19.50;53.10;;;;;;5075983;28;19925;-67
2023/04/17 11:11:10;;;;;;;;;;;19.60;53.00;;;;;;5064211;28;19932;-67
2023/04/17 11:13:36;;;;;;;;;;;19.50;53.00;;;;;;5080978;28;19998;-68
2023/04/17 11:16:02;;;;;;;;;;;19.50;52.90;;;;;;5055717;28;20837;-66
2023/04/17 11:18:28;;;;;;;;;;;19.50;52.90;;;;;;5064384;28;19992;-67
2023/04/17 11:20:54;;;;;;;;;;;19.50;53.00;;;;;;5060634;28;19924;-67
2023/04/17 11:23:19;;;;;;;;;;;19.50;53.20;;;;;;5080192;28;19920;-67
2023/04/17 11:25:46;;;;;;;;;;;19.50;53.10;;;;;;5064730;28;19934;-67
2023/04/17 11:28:11;;;;;;;;;;;19.50;53.30;;;;;;5074428;28;19920;-67
2023/04/17 11:30:41;;;;;;;;;;;19.40;53.20;;;;;;5084727;28;20395;-66
2023/04/17 11:33:07;;;;;;;;;;;19.50;53.30;;;;;;5058589;28;20287;-65
2023/04/17 11:40:57;;;;;;;;;;;19.50;53.70;;;;;;5054694;28;20176;-66
2023/04/17 11:43:23;;;;;;;;;;;19.50;53.60;;;;;;5028018;28;19921;-67
2023/04/17 11:45:50;;;;;;;;;;;19.50;53.40;;;;;;5030913;28;19983;-66
2023/04/17 11:48:19;;;;;;;;;;;19.50;53.40;;;;;;5045488;28;19936;-65
2023/04/17 11:50:44;;;;;;;;;;;19.60;53.40;;;;;;5028499;28;19976;-66
2023/04/17 11:53:12;;;;;;;;;;;19.50;53.40;;;;;;5028337;28;20400;-65
2023/04/17 11:55:37;;;;;;;;;;;19.60;53.20;;;;;;5021377;28;20661;-67
2023/04/17 11:58:05;;;;;;;;;;;19.50;53.20;;;;;;5027035;28;19926;-67
2023/04/17 12:00:31;;;;;;;;;;;19.60;53.10;;;;;;5024590;28;19941;-69
2023/04/17 12:02:57;;;;;;;;;;;19.60;53.10;;;;;;5029825;28;19932;-69
2023/04/17 12:05:23;;;;;;;;;;;19.60;53.10;;;;;;5027930;28;20072;-71
2023/04/17 12:08:04;;;;;;;;;;;19.50;52.90;;;;;;5027947;28;19929;-66
2023/04/17 12:10:45;;;;;;;;;;;19.50;52.90;;;;;;5026428;28;19975;-66
2023/04/17 12:13:10;;;;;;;;;;;19.50;53.00;;;;;;5027355;28;20587;-66
2023/04/17 12:15:36;;;;;;;;;;;19.50;52.90;;;;;;5047521;28;19925;-66
2023/04/17 12:18:04;;;;;;;;;;;19.50;53.00;;;;;;5045107;28;19925;-65
2023/04/17 12:20:31;;;;;;;;;;;19.50;53.00;;;;;;5029878;28;19940;-66
2023/04/17 12:22:56;;;;;;;;;;;19.50;53.00;;;;;;5028047;28;20003;-66
2023/04/17 12:25:22;;;;;;;;;;;19.50;53.10;;;;;;5029869;28;19970;-66
2023/04/17 12:27:47;;;;;;;;;;;19.50;53.20;;;;;;5041755;28;20041;-65
2023/04/17 12:30:13;;;;;;;;;;;19.50;53.40;;;;;;5027817;28;19979;-63
2023/04/17 12:32:39;;;;;;;;;;;19.50;53.50;;;;;;5030645;28;20174;-64
2023/04/17 12:35:05;;;;;;;;;;;19.50;53.70;;;;;;5026599;28;20101;-66
2023/04/17 12:37:30;;;;;;;;;;;19.60;53.90;;;;;;5023642;28;20641;-64
2023/04/17 12:39:57;;;;;;;;;;;19.60;53.90;;;;;;5030797;28;20345;-65
2023/04/17 12:42:23;;;;;;;;;;;19.60;54.00;;;;;;5024321;28;20304;-68
2023/04/17 12:44:48;;;;;;;;;;;19.60;53.90;;;;;;5026689;28;19924;-67
2023/04/17 12:47:14;;;;;;;;;;;19.60;53.90;;;;;;5024771;28;19925;-63
2023/04/17 12:49:39;;;;;;;;;;;19.60;53.90;;;;;;5029824;28;19925;-64
2023/04/17 12:52:05;;;;;;;;;;;19.60;54.00;;;;;;5023481;28;20428;-65
2023/04/17 12:54:31;;;;;;;;;;;19.60;53.90;;;;;;5011377;28;19921;-64
2023/04/17 12:56:57;;;;;;;;;;;19.60;53.90;;;;;;5011017;28;19947;-63
2023/04/17 12:59:22;;;;;;;;;;;19.60;53.90;;;;;;5022613;28;20032;-65
2023/04/17 13:01:48;;;;;;;;;;;19.60;54.00;;;;;;5024790;28;19929;-63
2023/04/17 13:04:13;;;;;;;;;;;19.70;54.20;;;;;;5027626;28;19964;-62
2023/04/17 13:06:39;;;;;;;;;;;19.60;53.90;;;;;;5028913;28;19925;-63
2023/04/17 13:09:05;;;;;;;;;;;19.70;53.90;;;;;;5023459;28;19921;-63
2023/04/17 13:11:31;;;;;;;;;;;19.70;53.80;;;;;;5025506;28;19928;-63
2023/04/17 13:13:56;;;;;;;;;;;19.70;53.70;;;;;;5027078;28;19930;-63
2023/04/17 13:16:22;;;;;;;;;;;19.60;53.50;;;;;;5026405;28;20335;-63
2023/04/17 13:18:47;;;;;;;;;;;19.60;53.20;;;;;;5023860;28;22353;-62
2023/04/17 13:21:13;;;;;;;;;;;19.60;53.10;;;;;;5018441;28;19971;-64
2023/04/17 13:23:38;;;;;;;;;;;19.60;53.00;;;;;;5019728;28;20450;-65
2023/04/17 13:26:04;;;;;;;;;;;19.60;52.70;;;;;;5036329;28;19944;-64
2023/04/17 13:28:29;;;;;;;;;;;19.60;52.80;;;;;;5018443;28;19932;-64
2023/04/17 13:30:55;;;;;;;;;;;19.60;52.70;;;;;;5018785;28;20270;-64
2023/04/17 13:33:20;;;;;;;;;;;19.50;52.60;;;;;;5017742;28;19929;-64
2023/04/17 13:35:46;;;;;;;;;;;19.60;52.50;;;;;;5015538;28;19925;-65
2023/04/17 13:38:11;;;;;;;;;;;19.60;52.50;;;;;;5017242;28;20490;-66
2023/04/17 13:40:37;;;;;;;;;;;19.60;52.30;;;;;;5032454;28;19983;-64
2023/04/17 13:43:04;;;;;;;;;;;19.60;52.50;;;;;;5016442;28;19921;-67
2023/04/17 13:45:30;;;;;;;;;;;19.60;52.70;;;;;;5017134;28;20426;-65
2023/04/17 13:47:55;;;;;;;;;;;19.60;52.70;;;;;;5017214;28;20013;-64
2023/04/17 13:50:21;;;;;;;;;;;19.60;52.70;;;;;;5015530;28;19921;-65
2023/04/17 13:52:46;;;;;;;;;;;19.60;52.50;;;;;;5023503;28;19987;-64
2023/04/17 13:55:13;;;;;;;;;;;19.60;52.40;;;;;;5016508;28;19986;-65
2023/04/17 13:57:39;;;;;;;;;;;19.60;52.40;;;;;;5014127;28;19925;-65
2023/04/17 14:00:06;;;;;;;;;;;19.60;52.40;;;;;;5018098;28;20008;-74
2023/04/17 14:02:31;;;;;;;;;;;19.60;52.20;;;;;;5015924;28;20297;-64
2023/04/17 14:04:57;;;;;;;;;;;19.60;52.30;;;;;;5016167;28;19921;-64
2023/04/17 14:07:22;;;;;;;;;;;19.60;53.10;;;;;;5018873;28;19921;-65
2023/04/17 14:09:48;;;;;;;;;;;19.60;52.40;;;;;;5006832;28;19960;-64
2023/04/17 14:12:19;;;;;;;;;;;19.70;52.60;;;;;;5023523;28;20371;-65
2023/04/17 14:14:44;;;;;;;;;;;19.70;52.60;;;;;;5023669;28;19932;-70
2023/04/17 14:17:10;;;;;;;;;;;19.70;52.80;;;;;;5024989;28;19929;-65
2023/04/17 14:19:35;;;;;;;;;;;19.70;52.90;;;;;;5027432;28;19979;-66
2023/04/17 14:22:01;;;;;;;;;;;19.70;53.00;;;;;;5026737;28;20012;-64
2023/04/17 14:24:26;;;;;;;;;;;19.80;53.20;;;;;;5023431;28;19925;-66
2023/04/17 14:26:52;;;;;;;;;;;19.80;53.20;;;;;;5024049;28;19925;-65
2023/04/17 14:29:17;;;;;;;;;;;19.80;53.20;;;;;;5026091;28;19925;-65
2023/04/17 14:31:43;;;;;;;;;;;19.90;53.40;;;;;;5025641;28;20236;-64
2023/04/17 14:34:08;;;;;;;;;;;19.90;53.60;;;;;;5025179;28;19940;-63